sensor_id;sensor_type;location;lat;lon;timestamp;P1;durP1;ratioP1;P2;durP2;ratioP2
28174;SDS011;59417;44.788;10.334;2023-07-31T00:00:07;7.30;;;5.72;;
28174;SDS011;59417;44.788;10.334;2023-07-31T00:02:34;13.52;;;7.07;;
28174;SDS011;59417;44.788;10.334;2023-07-31T00:05:00;10.35;;;6.40;;
28174;SDS011;59417;44.788;10.334;2023-07-31T00:07:26;7.78;;;4.55;;
28174;SDS011;59417;44.788;10.334;2023-07-31T00:09:52;9.75;;;4.63;;
28174;SDS011;59417;44.788;10.334;2023-07-31T00:12:19;9.85;;;4.65;;
28174;SDS011;59417;44.788;10.334;2023-07-31T00:14:45;7.88;;;4.88;;
28174;SDS011;59417;44.788;10.334;2023-07-31T00:17:11;6.85;;;4.35;;
28174;SDS011;59417;44.788;10.334;2023-07-31T00:19:37;5.60;;;4.63;;
28174;SDS011;59417;44.788;10.334;2023-07-31T00:22:02;8.90;;;4.93;;
28174;SDS011;59417;44.788;10.334;2023-07-31T00:24:28;5.47;;;4.40;;
28174;SDS011;59417;44.788;10.334;2023-07-31T00:26:54;6.35;;;4.60;;
28174;SDS011;59417;44.788;10.334;2023-07-31T00:29:19;7.47;;;4.93;;
28174;SDS011;59417;44.788;10.334;2023-07-31T00:31:45;10.35;;;4.15;;
28174;SDS011;59417;44.788;10.334;2023-07-31T00:34:11;6.80;;;4.38;;
28174;SDS011;59417;44.788;10.334;2023-07-31T00:36:36;7.68;;;4.32;;
28174;SDS011;59417;44.788;10.334;2023-07-31T00:39:02;5.20;;;4.40;;
28174;SDS011;59417;44.788;10.334;2023-07-31T00:41:28;7.43;;;5.25;;
28174;SDS011;59417;44.788;10.334;2023-07-31T00:43:53;6.57;;;4.53;;
28174;SDS011;59417;44.788;10.334;2023-07-31T00:46:19;9.43;;;5.20;;
28174;SDS011;59417;44.788;10.334;2023-07-31T00:48:45;6.45;;;4.53;;
28174;SDS011;59417;44.788;10.334;2023-07-31T00:51:11;6.05;;;4.53;;
28174;SDS011;59417;44.788;10.334;2023-07-31T00:53:36;5.57;;;4.53;;
28174;SDS011;59417;44.788;10.334;2023-07-31T00:56:03;5.07;;;4.57;;
28174;SDS011;59417;44.788;10.334;2023-07-31T00:58:29;6.82;;;4.40;;
28174;SDS011;59417;44.788;10.334;2023-07-31T01:00:54;6.15;;;5.00;;
28174;SDS011;59417;44.788;10.334;2023-07-31T01:03:20;5.68;;;4.63;;
28174;SDS011;59417;44.788;10.334;2023-07-31T01:08:24;4.80;;;4.00;;
28174;SDS011;59417;44.788;10.334;2023-07-31T01:11:06;7.90;;;4.30;;
28174;SDS011;59417;44.788;10.334;2023-07-31T01:13:38;4.70;;;4.25;;
28174;SDS011;59417;44.788;10.334;2023-07-31T01:16:04;6.65;;;4.65;;
28174;SDS011;59417;44.788;10.334;2023-07-31T01:18:29;5.80;;;4.65;;
28174;SDS011;59417;44.788;10.334;2023-07-31T01:20:57;6.40;;;4.70;;
28174;SDS011;59417;44.788;10.334;2023-07-31T01:23:48;5.70;;;4.90;;
28174;SDS011;59417;44.788;10.334;2023-07-31T01:26:41;8.98;;;5.60;;
28174;SDS011;59417;44.788;10.334;2023-07-31T01:31:57;8.95;;;6.35;;
28174;SDS011;59417;44.788;10.334;2023-07-31T01:34:26;9.48;;;6.88;;
28174;SDS011;59417;44.788;10.334;2023-07-31T01:36:55;13.52;;;7.88;;
28174;SDS011;59417;44.788;10.334;2023-07-31T01:39:22;8.13;;;6.93;;
28174;SDS011;59417;44.788;10.334;2023-07-31T01:41:47;10.30;;;6.78;;
28174;SDS011;59417;44.788;10.334;2023-07-31T01:44:13;8.52;;;6.65;;
28174;SDS011;59417;44.788;10.334;2023-07-31T01:46:39;8.10;;;5.95;;
28174;SDS011;59417;44.788;10.334;2023-07-31T01:49:05;8.07;;;5.85;;
28174;SDS011;59417;44.788;10.334;2023-07-31T01:51:31;8.95;;;5.82;;
28174;SDS011;59417;44.788;10.334;2023-07-31T01:54:00;11.38;;;5.97;;
28174;SDS011;59417;44.788;10.334;2023-07-31T01:56:29;6.15;;;5.35;;
28174;SDS011;59417;44.788;10.334;2023-07-31T01:58:54;8.30;;;5.28;;
28174;SDS011;59417;44.788;10.334;2023-07-31T02:01:20;9.10;;;5.40;;
28174;SDS011;59417;44.788;10.334;2023-07-31T02:03:46;5.72;;;4.75;;
28174;SDS011;59417;44.788;10.334;2023-07-31T02:06:11;10.23;;;5.68;;
28174;SDS011;59417;44.788;10.334;2023-07-31T02:08:37;6.57;;;4.57;;
28174;SDS011;59417;44.788;10.334;2023-07-31T02:11:03;6.90;;;5.00;;
28174;SDS011;59417;44.788;10.334;2023-07-31T02:13:30;9.00;;;5.40;;
28174;SDS011;59417;44.788;10.334;2023-07-31T02:15:55;8.05;;;5.03;;
28174;SDS011;59417;44.788;10.334;2023-07-31T02:18:21;5.65;;;4.93;;
28174;SDS011;59417;44.788;10.334;2023-07-31T02:20:51;6.90;;;5.40;;
28174;SDS011;59417;44.788;10.334;2023-07-31T02:23:18;10.75;;;5.97;;
28174;SDS011;59417;44.788;10.334;2023-07-31T02:25:44;5.97;;;4.57;;
28174;SDS011;59417;44.788;10.334;2023-07-31T02:28:10;9.80;;;5.50;;
28174;SDS011;59417;44.788;10.334;2023-07-31T02:30:36;6.95;;;5.35;;
28174;SDS011;59417;44.788;10.334;2023-07-31T02:33:02;6.63;;;5.18;;
28174;SDS011;59417;44.788;10.334;2023-07-31T02:35:29;6.65;;;5.25;;
28174;SDS011;59417;44.788;10.334;2023-07-31T02:37:54;6.65;;;5.60;;
28174;SDS011;59417;44.788;10.334;2023-07-31T02:40:20;7.90;;;5.80;;
28174;SDS011;59417;44.788;10.334;2023-07-31T02:42:45;9.85;;;6.10;;
28174;SDS011;59417;44.788;10.334;2023-07-31T02:45:11;8.60;;;5.78;;
28174;SDS011;59417;44.788;10.334;2023-07-31T02:47:37;11.63;;;6.53;;
28174;SDS011;59417;44.788;10.334;2023-07-31T02:50:03;6.45;;;5.82;;
28174;SDS011;59417;44.788;10.334;2023-07-31T02:52:29;7.68;;;6.25;;
28174;SDS011;59417;44.788;10.334;2023-07-31T02:54:54;8.25;;;6.47;;
28174;SDS011;59417;44.788;10.334;2023-07-31T02:57:20;12.45;;;6.63;;
28174;SDS011;59417;44.788;10.334;2023-07-31T02:59:46;7.45;;;6.00;;
28174;SDS011;59417;44.788;10.334;2023-07-31T03:02:11;8.70;;;7.15;;
28174;SDS011;59417;44.788;10.334;2023-07-31T03:04:38;7.72;;;5.88;;
28174;SDS011;59417;44.788;10.334;2023-07-31T03:07:04;9.30;;;7.63;;
28174;SDS011;59417;44.788;10.334;2023-07-31T03:09:30;10.55;;;7.93;;
28174;SDS011;59417;44.788;10.334;2023-07-31T03:11:56;11.73;;;8.75;;
28174;SDS011;59417;44.788;10.334;2023-07-31T03:14:21;16.10;;;10.27;;
28174;SDS011;59417;44.788;10.334;2023-07-31T03:16:47;12.50;;;9.23;;
28174;SDS011;59417;44.788;10.334;2023-07-31T03:19:13;10.27;;;9.25;;
28174;SDS011;59417;44.788;10.334;2023-07-31T03:21:38;11.10;;;9.63;;
28174;SDS011;59417;44.788;10.334;2023-07-31T03:24:04;11.35;;;9.73;;
28174;SDS011;59417;44.788;10.334;2023-07-31T03:26:31;11.88;;;7.97;;
28174;SDS011;59417;44.788;10.334;2023-07-31T03:28:57;9.50;;;8.18;;
28174;SDS011;59417;44.788;10.334;2023-07-31T03:31:22;11.15;;;8.95;;
28174;SDS011;59417;44.788;10.334;2023-07-31T03:33:48;10.60;;;7.97;;
28174;SDS011;59417;44.788;10.334;2023-07-31T03:36:13;10.70;;;8.45;;
28174;SDS011;59417;44.788;10.334;2023-07-31T03:38:39;11.40;;;8.85;;
28174;SDS011;59417;44.788;10.334;2023-07-31T03:41:06;12.32;;;9.23;;
28174;SDS011;59417;44.788;10.334;2023-07-31T03:43:32;11.20;;;8.93;;
28174;SDS011;59417;44.788;10.334;2023-07-31T03:46:01;11.77;;;8.95;;
28174;SDS011;59417;44.788;10.334;2023-07-31T03:48:27;10.90;;;9.05;;
28174;SDS011;59417;44.788;10.334;2023-07-31T03:50:54;10.38;;;9.25;;
28174;SDS011;59417;44.788;10.334;2023-07-31T03:53:21;10.38;;;9.27;;
28174;SDS011;59417;44.788;10.334;2023-07-31T03:55:46;10.98;;;9.38;;
28174;SDS011;59417;44.788;10.334;2023-07-31T03:58:12;13.60;;;10.10;;
28174;SDS011;59417;44.788;10.334;2023-07-31T04:00:39;11.02;;;9.95;;
28174;SDS011;59417;44.788;10.334;2023-07-31T04:03:05;13.18;;;9.98;;
28174;SDS011;59417;44.788;10.334;2023-07-31T04:05:31;10.27;;;9.15;;
28174;SDS011;59417;44.788;10.334;2023-07-31T04:07:58;12.13;;;10.40;;
28174;SDS011;59417;44.788;10.334;2023-07-31T04:10:23;16.63;;;11.82;;
28174;SDS011;59417;44.788;10.334;2023-07-31T04:12:49;11.73;;;10.50;;
28174;SDS011;59417;44.788;10.334;2023-07-31T04:15:15;12.43;;;10.10;;
28174;SDS011;59417;44.788;10.334;2023-07-31T04:17:40;13.35;;;10.40;;
28174;SDS011;59417;44.788;10.334;2023-07-31T04:20:06;12.93;;;11.07;;
28174;SDS011;59417;44.788;10.334;2023-07-31T04:22:32;10.88;;;8.60;;
28174;SDS011;59417;44.788;10.334;2023-07-31T04:24:58;13.68;;;9.60;;
28174;SDS011;59417;44.788;10.334;2023-07-31T04:27:23;13.15;;;9.23;;
28174;SDS011;59417;44.788;10.334;2023-07-31T04:29:49;10.02;;;8.70;;
28174;SDS011;59417;44.788;10.334;2023-07-31T04:32:16;11.07;;;8.88;;
28174;SDS011;59417;44.788;10.334;2023-07-31T04:34:42;14.52;;;9.95;;
28174;SDS011;59417;44.788;10.334;2023-07-31T04:37:08;10.32;;;8.80;;
28174;SDS011;59417;44.788;10.334;2023-07-31T04:39:33;12.63;;;9.77;;
28174;SDS011;59417;44.788;10.334;2023-07-31T04:41:59;12.10;;;9.10;;
28174;SDS011;59417;44.788;10.334;2023-07-31T04:44:24;12.63;;;8.27;;
28174;SDS011;59417;44.788;10.334;2023-07-31T04:46:50;8.95;;;7.55;;
28174;SDS011;59417;44.788;10.334;2023-07-31T04:49:16;12.13;;;7.43;;
28174;SDS011;59417;44.788;10.334;2023-07-31T04:51:41;10.48;;;7.20;;
28174;SDS011;59417;44.788;10.334;2023-07-31T04:54:07;9.38;;;7.03;;
28174;SDS011;59417;44.788;10.334;2023-07-31T04:56:32;7.25;;;6.63;;
28174;SDS011;59417;44.788;10.334;2023-07-31T04:58:58;8.13;;;6.95;;
28174;SDS011;59417;44.788;10.334;2023-07-31T05:01:23;8.65;;;7.07;;
28174;SDS011;59417;44.788;10.334;2023-07-31T05:03:49;7.82;;;6.88;;
28174;SDS011;59417;44.788;10.334;2023-07-31T05:06:15;9.30;;;6.93;;
28174;SDS011;59417;44.788;10.334;2023-07-31T05:08:40;10.45;;;7.07;;
28174;SDS011;59417;44.788;10.334;2023-07-31T05:11:06;8.50;;;7.65;;
28174;SDS011;59417;44.788;10.334;2023-07-31T05:13:31;9.13;;;7.05;;
28174;SDS011;59417;44.788;10.334;2023-07-31T05:15:57;10.63;;;6.78;;
28174;SDS011;59417;44.788;10.334;2023-07-31T05:18:22;11.35;;;8.20;;
28174;SDS011;59417;44.788;10.334;2023-07-31T05:20:48;13.02;;;8.00;;
28174;SDS011;59417;44.788;10.334;2023-07-31T05:23:13;9.95;;;6.85;;
28174;SDS011;59417;44.788;10.334;2023-07-31T05:25:39;8.50;;;7.57;;
28174;SDS011;59417;44.788;10.334;2023-07-31T05:28:05;8.88;;;7.53;;
28174;SDS011;59417;44.788;10.334;2023-07-31T05:30:30;9.90;;;7.80;;
28174;SDS011;59417;44.788;10.334;2023-07-31T05:32:56;9.55;;;7.65;;
28174;SDS011;59417;44.788;10.334;2023-07-31T05:35:22;10.13;;;7.32;;
28174;SDS011;59417;44.788;10.334;2023-07-31T05:37:48;7.72;;;6.93;;
28174;SDS011;59417;44.788;10.334;2023-07-31T05:40:14;10.52;;;7.32;;
28174;SDS011;59417;44.788;10.334;2023-07-31T05:42:39;10.25;;;7.20;;
28174;SDS011;59417;44.788;10.334;2023-07-31T05:45:06;7.97;;;6.22;;
28174;SDS011;59417;44.788;10.334;2023-07-31T05:47:32;8.73;;;6.60;;
28174;SDS011;59417;44.788;10.334;2023-07-31T05:49:57;12.25;;;7.07;;
28174;SDS011;59417;44.788;10.334;2023-07-31T05:52:23;9.63;;;6.82;;
28174;SDS011;59417;44.788;10.334;2023-07-31T05:54:49;10.38;;;7.35;;
28174;SDS011;59417;44.788;10.334;2023-07-31T05:57:15;9.75;;;6.00;;
28174;SDS011;59417;44.788;10.334;2023-07-31T05:59:41;9.35;;;6.25;;
28174;SDS011;59417;44.788;10.334;2023-07-31T06:02:07;10.60;;;6.72;;
28174;SDS011;59417;44.788;10.334;2023-07-31T06:04:32;8.77;;;7.22;;
28174;SDS011;59417;44.788;10.334;2023-07-31T06:06:58;9.48;;;6.55;;
28174;SDS011;59417;44.788;10.334;2023-07-31T06:09:24;11.20;;;7.50;;
28174;SDS011;59417;44.788;10.334;2023-07-31T06:11:51;12.02;;;7.07;;
28174;SDS011;59417;44.788;10.334;2023-07-31T06:14:16;7.63;;;6.82;;
28174;SDS011;59417;44.788;10.334;2023-07-31T06:16:42;7.55;;;6.53;;
28174;SDS011;59417;44.788;10.334;2023-07-31T06:19:09;10.20;;;6.38;;
28174;SDS011;59417;44.788;10.334;2023-07-31T06:21:35;9.75;;;6.95;;
28174;SDS011;59417;44.788;10.334;2023-07-31T06:24:03;11.23;;;6.80;;
28174;SDS011;59417;44.788;10.334;2023-07-31T06:26:29;7.40;;;6.07;;
28174;SDS011;59417;44.788;10.334;2023-07-31T06:28:54;13.80;;;6.47;;
28174;SDS011;59417;44.788;10.334;2023-07-31T06:31:20;10.60;;;6.68;;
28174;SDS011;59417;44.788;10.334;2023-07-31T06:33:51;9.75;;;6.70;;
28174;SDS011;59417;44.788;10.334;2023-07-31T06:36:17;11.05;;;7.32;;
28174;SDS011;59417;44.788;10.334;2023-07-31T06:38:43;9.82;;;6.50;;
28174;SDS011;59417;44.788;10.334;2023-07-31T06:41:09;9.23;;;5.90;;
28174;SDS011;59417;44.788;10.334;2023-07-31T06:43:36;7.45;;;6.28;;
28174;SDS011;59417;44.788;10.334;2023-07-31T06:46:05;9.70;;;6.28;;
28174;SDS011;59417;44.788;10.334;2023-07-31T06:48:32;10.70;;;7.57;;
28174;SDS011;59417;44.788;10.334;2023-07-31T06:51:02;10.43;;;5.93;;
28174;SDS011;59417;44.788;10.334;2023-07-31T06:53:28;10.10;;;6.70;;
28174;SDS011;59417;44.788;10.334;2023-07-31T06:55:54;11.23;;;7.63;;
28174;SDS011;59417;44.788;10.334;2023-07-31T06:58:19;12.13;;;6.50;;
28174;SDS011;59417;44.788;10.334;2023-07-31T07:00:45;10.05;;;7.57;;
28174;SDS011;59417;44.788;10.334;2023-07-31T07:03:11;9.98;;;6.35;;
28174;SDS011;59417;44.788;10.334;2023-07-31T07:05:39;7.50;;;6.47;;
28174;SDS011;59417;44.788;10.334;2023-07-31T07:08:05;9.95;;;5.53;;
28174;SDS011;59417;44.788;10.334;2023-07-31T07:10:31;10.15;;;7.00;;
28174;SDS011;59417;44.788;10.334;2023-07-31T07:12:57;10.13;;;7.00;;
28174;SDS011;59417;44.788;10.334;2023-07-31T07:15:22;8.05;;;5.50;;
28174;SDS011;59417;44.788;10.334;2023-07-31T07:17:48;9.32;;;6.53;;
28174;SDS011;59417;44.788;10.334;2023-07-31T07:20:13;13.55;;;6.72;;
28174;SDS011;59417;44.788;10.334;2023-07-31T07:22:39;6.82;;;6.18;;
28174;SDS011;59417;44.788;10.334;2023-07-31T07:25:04;8.38;;;6.18;;
28174;SDS011;59417;44.788;10.334;2023-07-31T07:27:32;8.20;;;5.18;;
28174;SDS011;59417;44.788;10.334;2023-07-31T07:29:58;8.35;;;5.20;;
28174;SDS011;59417;44.788;10.334;2023-07-31T07:32:23;10.25;;;5.57;;
28174;SDS011;59417;44.788;10.334;2023-07-31T07:34:49;9.38;;;5.72;;
28174;SDS011;59417;44.788;10.334;2023-07-31T07:37:14;9.88;;;5.32;;
28174;SDS011;59417;44.788;10.334;2023-07-31T07:39:40;9.48;;;6.47;;
28174;SDS011;59417;44.788;10.334;2023-07-31T07:42:06;10.90;;;5.70;;
28174;SDS011;59417;44.788;10.334;2023-07-31T07:44:32;6.70;;;5.20;;
28174;SDS011;59417;44.788;10.334;2023-07-31T07:46:57;10.05;;;5.97;;
28174;SDS011;59417;44.788;10.334;2023-07-31T07:49:24;10.02;;;5.82;;
28174;SDS011;59417;44.788;10.334;2023-07-31T07:51:49;7.85;;;6.15;;
28174;SDS011;59417;44.788;10.334;2023-07-31T07:54:15;8.93;;;5.72;;
28174;SDS011;59417;44.788;10.334;2023-07-31T07:56:42;7.40;;;5.75;;
28174;SDS011;59417;44.788;10.334;2023-07-31T07:59:08;10.68;;;7.50;;
28174;SDS011;59417;44.788;10.334;2023-07-31T08:01:33;8.45;;;5.78;;
28174;SDS011;59417;44.788;10.334;2023-07-31T08:03:59;7.70;;;5.57;;
28174;SDS011;59417;44.788;10.334;2023-07-31T08:06:25;7.75;;;5.43;;
28174;SDS011;59417;44.788;10.334;2023-07-31T08:08:50;11.30;;;6.32;;
28174;SDS011;59417;44.788;10.334;2023-07-31T08:11:16;7.95;;;5.57;;
28174;SDS011;59417;44.788;10.334;2023-07-31T08:13:42;10.95;;;7.10;;
28174;SDS011;59417;44.788;10.334;2023-07-31T08:16:07;9.52;;;6.05;;
28174;SDS011;59417;44.788;10.334;2023-07-31T08:18:33;9.07;;;5.85;;
28174;SDS011;59417;44.788;10.334;2023-07-31T08:20:59;9.52;;;6.05;;
28174;SDS011;59417;44.788;10.334;2023-07-31T08:23:27;9.68;;;6.38;;
28174;SDS011;59417;44.788;10.334;2023-07-31T08:25:52;8.07;;;5.68;;
28174;SDS011;59417;44.788;10.334;2023-07-31T08:28:18;7.72;;;6.05;;
28174;SDS011;59417;44.788;10.334;2023-07-31T08:30:44;7.32;;;5.95;;
28174;SDS011;59417;44.788;10.334;2023-07-31T08:33:09;6.95;;;5.65;;
28174;SDS011;59417;44.788;10.334;2023-07-31T08:35:35;4.38;;;3.97;;
28174;SDS011;59417;44.788;10.334;2023-07-31T08:38:01;7.47;;;4.15;;
28174;SDS011;59417;44.788;10.334;2023-07-31T08:40:28;4.60;;;4.05;;
28174;SDS011;59417;44.788;10.334;2023-07-31T08:42:54;5.00;;;3.60;;
28174;SDS011;59417;44.788;10.334;2023-07-31T08:45:22;5.20;;;3.75;;
28174;SDS011;59417;44.788;10.334;2023-07-31T08:47:48;5.97;;;3.78;;
28174;SDS011;59417;44.788;10.334;2023-07-31T08:50:16;4.07;;;3.67;;
28174;SDS011;59417;44.788;10.334;2023-07-31T08:52:43;6.72;;;3.55;;
28174;SDS011;59417;44.788;10.334;2023-07-31T08:55:10;3.60;;;2.85;;
28174;SDS011;59417;44.788;10.334;2023-07-31T08:57:37;3.40;;;2.95;;
28174;SDS011;59417;44.788;10.334;2023-07-31T09:00:08;2.58;;;2.33;;
28174;SDS011;59417;44.788;10.334;2023-07-31T09:02:52;2.30;;;2.10;;
28174;SDS011;59417;44.788;10.334;2023-07-31T09:05:21;3.42;;;2.40;;
28174;SDS011;59417;44.788;10.334;2023-07-31T09:07:49;2.97;;;2.20;;
28174;SDS011;59417;44.788;10.334;2023-07-31T09:10:15;3.30;;;2.38;;
28174;SDS011;59417;44.788;10.334;2023-07-31T09:12:41;2.67;;;2.08;;
28174;SDS011;59417;44.788;10.334;2023-07-31T09:15:07;3.42;;;2.08;;
28174;SDS011;59417;44.788;10.334;2023-07-31T09:17:35;2.72;;;2.40;;
28174;SDS011;59417;44.788;10.334;2023-07-31T09:20:20;5.22;;;2.20;;
28174;SDS011;59417;44.788;10.334;2023-07-31T09:22:48;4.07;;;2.47;;
28174;SDS011;59417;44.788;10.334;2023-07-31T09:25:18;9.25;;;2.15;;
28174;SDS011;59417;44.788;10.334;2023-07-31T09:27:48;6.70;;;2.65;;
28174;SDS011;59417;44.788;10.334;2023-07-31T09:30:14;3.67;;;2.30;;
28174;SDS011;59417;44.788;10.334;2023-07-31T09:32:40;3.95;;;2.60;;
28174;SDS011;59417;44.788;10.334;2023-07-31T09:35:28;3.40;;;2.33;;
28174;SDS011;59417;44.788;10.334;2023-07-31T09:37:57;2.92;;;2.47;;
28174;SDS011;59417;44.788;10.334;2023-07-31T09:42:57;5.10;;;3.58;;
28174;SDS011;59417;44.788;10.334;2023-07-31T09:45:24;6.22;;;3.20;;
28174;SDS011;59417;44.788;10.334;2023-07-31T09:47:51;4.25;;;2.47;;
28174;SDS011;59417;44.788;10.334;2023-07-31T09:50:17;3.50;;;2.95;;
28174;SDS011;59417;44.788;10.334;2023-07-31T09:52:45;4.13;;;3.38;;
28174;SDS011;59417;44.788;10.334;2023-07-31T09:55:10;4.65;;;3.38;;
28174;SDS011;59417;44.788;10.334;2023-07-31T09:57:41;7.60;;;4.25;;
28174;SDS011;59417;44.788;10.334;2023-07-31T10:00:10;4.93;;;4.43;;
28174;SDS011;59417;44.788;10.334;2023-07-31T10:02:38;5.93;;;4.00;;
28174;SDS011;59417;44.788;10.334;2023-07-31T10:05:05;9.13;;;4.72;;
28174;SDS011;59417;44.788;10.334;2023-07-31T10:07:33;4.70;;;4.30;;
28174;SDS011;59417;44.788;10.334;2023-07-31T10:10:02;6.82;;;5.22;;
28174;SDS011;59417;44.788;10.334;2023-07-31T10:12:29;5.63;;;4.95;;
28174;SDS011;59417;44.788;10.334;2023-07-31T10:14:57;5.65;;;4.80;;
28174;SDS011;59417;44.788;10.334;2023-07-31T10:17:25;7.10;;;5.03;;
28174;SDS011;59417;44.788;10.334;2023-07-31T10:19:51;3.65;;;3.00;;
28174;SDS011;59417;44.788;10.334;2023-07-31T10:22:19;4.50;;;4.10;;
28174;SDS011;59417;44.788;10.334;2023-07-31T10:24:45;9.52;;;5.05;;
28174;SDS011;59417;44.788;10.334;2023-07-31T10:27:12;10.05;;;4.20;;
28174;SDS011;59417;44.788;10.334;2023-07-31T10:29:38;4.60;;;3.97;;
28174;SDS011;59417;44.788;10.334;2023-07-31T10:32:05;7.90;;;4.25;;
28174;SDS011;59417;44.788;10.334;2023-07-31T10:34:35;7.35;;;3.70;;
28174;SDS011;59417;44.788;10.334;2023-07-31T10:40:03;5.30;;;4.18;;
28174;SDS011;59417;44.788;10.334;2023-07-31T10:42:34;4.30;;;3.33;;
28174;SDS011;59417;44.788;10.334;2023-07-31T10:45:05;4.85;;;3.90;;
28174;SDS011;59417;44.788;10.334;2023-07-31T10:48:06;5.13;;;3.63;;
28174;SDS011;59417;44.788;10.334;2023-07-31T10:50:28;4.38;;;3.50;;
28174;SDS011;59417;44.788;10.334;2023-07-31T10:52:57;4.53;;;3.45;;
28174;SDS011;59417;44.788;10.334;2023-07-31T10:55:28;4.47;;;3.20;;
28174;SDS011;59417;44.788;10.334;2023-07-31T10:58:05;6.93;;;3.60;;
28174;SDS011;59417;44.788;10.334;2023-07-31T11:00:32;3.80;;;3.15;;
28174;SDS011;59417;44.788;10.334;2023-07-31T11:03:00;5.05;;;2.85;;
28174;SDS011;59417;44.788;10.334;2023-07-31T11:05:46;4.32;;;3.33;;
28174;SDS011;59417;44.788;10.334;2023-07-31T11:08:16;5.50;;;3.30;;
28174;SDS011;59417;44.788;10.334;2023-07-31T11:11:10;5.00;;;3.33;;
28174;SDS011;59417;44.788;10.334;2023-07-31T11:16:08;4.47;;;3.50;;
28174;SDS011;59417;44.788;10.334;2023-07-31T11:18:34;6.40;;;3.63;;
28174;SDS011;59417;44.788;10.334;2023-07-31T11:21:00;4.78;;;3.58;;
28174;SDS011;59417;44.788;10.334;2023-07-31T11:23:25;5.25;;;3.80;;
28174;SDS011;59417;44.788;10.334;2023-07-31T11:25:51;5.63;;;3.38;;
28174;SDS011;59417;44.788;10.334;2023-07-31T11:28:17;3.80;;;2.92;;
28174;SDS011;59417;44.788;10.334;2023-07-31T11:30:44;5.53;;;3.42;;
28174;SDS011;59417;44.788;10.334;2023-07-31T11:33:12;3.80;;;3.15;;
28174;SDS011;59417;44.788;10.334;2023-07-31T11:35:43;4.60;;;3.03;;
28174;SDS011;59417;44.788;10.334;2023-07-31T11:38:16;3.50;;;3.05;;
28174;SDS011;59417;44.788;10.334;2023-07-31T11:40:50;4.35;;;3.78;;
28174;SDS011;59417;44.788;10.334;2023-07-31T11:43:20;3.95;;;3.65;;
28174;SDS011;59417;44.788;10.334;2023-07-31T11:45:56;4.65;;;3.70;;
28174;SDS011;59417;44.788;10.334;2023-07-31T11:48:24;6.90;;;4.20;;
28174;SDS011;59417;44.788;10.334;2023-07-31T11:50:59;5.60;;;3.75;;
28174;SDS011;59417;44.788;10.334;2023-07-31T11:56:25;6.97;;;3.80;;
28174;SDS011;59417;44.788;10.334;2023-07-31T11:58:57;4.35;;;3.95;;
28174;SDS011;59417;44.788;10.334;2023-07-31T12:01:24;4.65;;;3.92;;
28174;SDS011;59417;44.788;10.334;2023-07-31T12:03:52;5.80;;;3.03;;
28174;SDS011;59417;44.788;10.334;2023-07-31T12:06:19;4.40;;;3.58;;
28174;SDS011;59417;44.788;10.334;2023-07-31T12:08:46;7.38;;;3.47;;
28174;SDS011;59417;44.788;10.334;2023-07-31T12:11:12;4.18;;;3.35;;
28174;SDS011;59417;44.788;10.334;2023-07-31T12:13:42;4.72;;;3.90;;
28174;SDS011;59417;44.788;10.334;2023-07-31T12:16:08;6.00;;;3.85;;
28174;SDS011;59417;44.788;10.334;2023-07-31T12:18:37;4.25;;;3.85;;
28174;SDS011;59417;44.788;10.334;2023-07-31T12:23:33;6.40;;;4.18;;
28174;SDS011;59417;44.788;10.334;2023-07-31T12:26:08;5.13;;;4.55;;
28174;SDS011;59417;44.788;10.334;2023-07-31T12:28:43;6.32;;;4.50;;
28174;SDS011;59417;44.788;10.334;2023-07-31T12:31:13;8.25;;;4.97;;
28174;SDS011;59417;44.788;10.334;2023-07-31T12:33:44;7.55;;;4.57;;
28174;SDS011;59417;44.788;10.334;2023-07-31T12:36:12;7.95;;;5.15;;
28174;SDS011;59417;44.788;10.334;2023-07-31T12:38:39;4.47;;;4.07;;
28174;SDS011;59417;44.788;10.334;2023-07-31T12:41:06;5.47;;;4.28;;
28174;SDS011;59417;44.788;10.334;2023-07-31T12:43:32;6.05;;;4.00;;
28174;SDS011;59417;44.788;10.334;2023-07-31T12:46:02;4.35;;;3.95;;
28174;SDS011;59417;44.788;10.334;2023-07-31T12:48:28;6.85;;;4.18;;
28174;SDS011;59417;44.788;10.334;2023-07-31T12:50:54;4.38;;;3.97;;
28174;SDS011;59417;44.788;10.334;2023-07-31T12:53:20;5.78;;;3.72;;
28174;SDS011;59417;44.788;10.334;2023-07-31T12:55:46;4.15;;;3.75;;
28174;SDS011;59417;44.788;10.334;2023-07-31T12:58:12;4.20;;;3.80;;
28174;SDS011;59417;44.788;10.334;2023-07-31T13:00:37;5.38;;;3.95;;
28174;SDS011;59417;44.788;10.334;2023-07-31T13:03:03;6.90;;;4.72;;
28174;SDS011;59417;44.788;10.334;2023-07-31T13:05:29;5.57;;;4.40;;
28174;SDS011;59417;44.788;10.334;2023-07-31T13:07:55;7.18;;;5.28;;
28174;SDS011;59417;44.788;10.334;2023-07-31T13:10:21;5.53;;;4.57;;
28174;SDS011;59417;44.788;10.334;2023-07-31T13:12:48;5.57;;;4.25;;
28174;SDS011;59417;44.788;10.334;2023-07-31T13:15:13;5.35;;;4.38;;
28174;SDS011;59417;44.788;10.334;2023-07-31T13:17:39;5.03;;;4.53;;
28174;SDS011;59417;44.788;10.334;2023-07-31T13:20:05;11.75;;;4.63;;
28174;SDS011;59417;44.788;10.334;2023-07-31T13:22:32;4.80;;;4.40;;
28174;SDS011;59417;44.788;10.334;2023-07-31T13:24:58;5.03;;;4.53;;
28174;SDS011;59417;44.788;10.334;2023-07-31T13:27:23;4.55;;;4.00;;
28174;SDS011;59417;44.788;10.334;2023-07-31T13:29:49;6.70;;;4.50;;
28174;SDS011;59417;44.788;10.334;2023-07-31T13:32:16;6.07;;;4.72;;
28174;SDS011;59417;44.788;10.334;2023-07-31T13:34:43;6.60;;;4.78;;
28174;SDS011;59417;44.788;10.334;2023-07-31T13:37:09;5.82;;;4.53;;
28174;SDS011;59417;44.788;10.334;2023-07-31T13:39:35;7.97;;;4.85;;
28174;SDS011;59417;44.788;10.334;2023-07-31T13:42:04;5.60;;;4.53;;
28174;SDS011;59417;44.788;10.334;2023-07-31T13:44:33;5.97;;;4.13;;
28174;SDS011;59417;44.788;10.334;2023-07-31T13:47:02;4.60;;;4.18;;
28174;SDS011;59417;44.788;10.334;2023-07-31T13:49:28;4.70;;;3.40;;
28174;SDS011;59417;44.788;10.334;2023-07-31T13:51:55;4.63;;;4.22;;
28174;SDS011;59417;44.788;10.334;2023-07-31T13:54:24;7.05;;;4.20;;
28174;SDS011;59417;44.788;10.334;2023-07-31T13:56:51;5.47;;;4.15;;
28174;SDS011;59417;44.788;10.334;2023-07-31T13:59:17;4.10;;;3.65;;
28174;SDS011;59417;44.788;10.334;2023-07-31T14:01:43;4.25;;;3.85;;
28174;SDS011;59417;44.788;10.334;2023-07-31T14:04:09;7.18;;;4.20;;
28174;SDS011;59417;44.788;10.334;2023-07-31T14:06:35;4.95;;;4.07;;
28174;SDS011;59417;44.788;10.334;2023-07-31T14:09:01;6.72;;;3.58;;
28174;SDS011;59417;44.788;10.334;2023-07-31T14:11:28;10.57;;;4.82;;
28174;SDS011;59417;44.788;10.334;2023-07-31T14:13:54;7.22;;;5.15;;
28174;SDS011;59417;44.788;10.334;2023-07-31T14:16:21;7.20;;;4.90;;
28174;SDS011;59417;44.788;10.334;2023-07-31T14:18:47;7.15;;;4.55;;
28174;SDS011;59417;44.788;10.334;2023-07-31T14:21:12;6.55;;;4.53;;
28174;SDS011;59417;44.788;10.334;2023-07-31T14:23:39;4.68;;;4.28;;
28174;SDS011;59417;44.788;10.334;2023-07-31T14:26:05;6.88;;;4.07;;
28174;SDS011;59417;44.788;10.334;2023-07-31T14:28:30;4.22;;;3.83;;
28174;SDS011;59417;44.788;10.334;2023-07-31T14:30:56;6.40;;;3.95;;
28174;SDS011;59417;44.788;10.334;2023-07-31T14:33:21;4.30;;;3.92;;
28174;SDS011;59417;44.788;10.334;2023-07-31T14:35:47;4.78;;;4.07;;
28174;SDS011;59417;44.788;10.334;2023-07-31T14:38:13;4.50;;;4.07;;
28174;SDS011;59417;44.788;10.334;2023-07-31T14:40:39;5.20;;;4.28;;
28174;SDS011;59417;44.788;10.334;2023-07-31T14:43:04;6.30;;;4.00;;
28174;SDS011;59417;44.788;10.334;2023-07-31T14:45:30;5.68;;;3.90;;
28174;SDS011;59417;44.788;10.334;2023-07-31T14:47:55;6.80;;;3.78;;